Time;durP1;ratioP1;P1;durP2;ratioP2;P2;SDS_P1;SDS_P2;PMS_P1;PMS_P2;Temp;Humidity;BMP_temperature;BMP_pressure;BME280_temperature;BME280_humidity;BME280_pressure;Samples;Min_cycle;Max_cycle;Signal;HPM_P1;HPM_P2
2022/12/08 00:01:44;;;;;;;26.10;20.30;;;4.40;99.90;;;;;;2613703;54;20948;-72
2022/12/08 00:14:15;;;;;;;32.43;21.07;;;4.40;99.90;;;;;;2614383;54;20414;-71
2022/12/08 00:23:40;;;;;;;39.33;22.30;;;4.50;99.90;;;;;;2612679;54;21021;-71
2022/12/08 00:29:27;;;;;;;30.73;21.43;;;4.40;99.90;;;;;;2612248;54;20134;-74
2022/12/08 00:35:14;;;;;;;29.70;21.53;;;4.40;99.90;;;;;;2612186;54;20386;-72
2022/12/08 00:41:02;;;;;;;32.73;23.30;;;4.40;99.90;;;;;;2612015;46;20153;-73
2022/12/08 00:46:49;;;;;;;28.57;24.37;;;4.40;99.90;;;;;;2612454;54;21110;-73
2022/12/08 00:52:37;;;;;;;33.20;23.27;;;4.40;99.90;;;;;;2611580;39;20672;-72
2022/12/08 00:58:24;;;;;;;30.63;22.43;;;4.40;99.90;;;;;;2614118;54;20402;-74
2022/12/08 01:04:15;;;;;;;19.97;16.43;;;4.40;99.90;;;;;;2614700;54;20146;-74
2022/12/08 01:10:03;;;;;;;29.70;23.40;;;4.40;99.90;;;;;;2613892;46;20479;-72
2022/12/08 01:19:19;;;;;;;31.23;19.40;;;4.30;99.90;;;;;;2613667;54;20427;-73
2022/12/08 01:25:07;;;;;;;30.77;21.47;;;4.20;99.90;;;;;;2613955;54;20398;-72
2022/12/08 01:30:59;;;;;;;30.90;22.73;;;4.10;99.90;;;;;;2614477;54;20423;-72
2022/12/08 01:36:47;;;;;;;31.50;20.67;;;4.10;99.90;;;;;;2613937;54;20386;-72
2022/12/08 01:42:37;;;;;;;26.57;20.07;;;4.10;99.90;;;;;;2614937;39;20239;-72
2022/12/08 01:48:26;;;;;;;33.30;22.40;;;4.00;99.90;;;;;;2614760;54;20993;-71
2022/12/08 01:54:15;;;;;;;36.10;25.53;;;4.00;99.90;;;;;;2615370;54;20395;-71
2022/12/08 02:00:12;;;;;;;33.27;24.40;;;4.10;99.90;;;;;;2615163;54;20639;-74
2022/12/08 02:06:01;;;;;;;38.33;25.77;;;4.10;99.90;;;;;;2614588;54;20382;-72
2022/12/08 02:11:50;;;;;;;38.33;23.50;;;4.20;99.90;;;;;;2614702;54;20423;-75
2022/12/08 02:14:46;;;;;;;38.83;25.33;;;4.20;99.90;;;;;;2614825;54;20429;-72
2022/12/08 02:49:37;;;;;;;44.53;26.93;;;4.20;99.90;;;;;;2614040;54;20491;-73
2022/12/08 03:02:11;;;;;;;41.03;24.80;;;4.20;99.90;;;;;;2614320;54;20900;-74
2022/12/08 03:08:08;;;;;;;49.13;27.50;;;4.30;99.90;;;;;;2614151;54;20423;-73
2022/12/08 03:14:00;;;;;;;46.77;27.30;;;4.30;99.90;;;;;;2614073;39;20786;-74
2022/12/08 03:19:48;;;;;;;36.40;21.57;;;4.30;99.90;;;;;;2613618;54;20427;-73
2022/12/08 03:25:42;;;;;;;52.43;30.90;;;4.30;99.90;;;;;;2614635;39;20890;-73
2022/12/08 03:31:36;;;;;;;43.47;28.57;;;4.30;99.90;;;;;;2613710;54;20519;-72
2022/12/08 03:37:26;;;;;;;40.93;26.40;;;4.30;99.90;;;;;;2614911;39;20819;-74
2022/12/08 03:43:14;;;;;;;46.37;27.77;;;4.30;99.90;;;;;;2613906;46;20397;-72
2022/12/08 03:49:02;;;;;;;55.33;30.07;;;4.40;99.90;;;;;;2612721;54;20138;-72
2022/12/08 03:54:49;;;;;;;47.17;28.00;;;4.30;99.90;;;;;;2612871;54;20670;-75
2022/12/08 04:00:37;;;;;;;40.80;25.67;;;4.30;99.90;;;;;;2614177;54;20134;-77
2022/12/08 04:06:25;;;;;;;44.37;24.17;;;4.30;99.90;;;;;;2614897;46;20271;-76
2022/12/08 04:12:12;;;;;;;46.37;26.70;;;4.30;99.90;;;;;;2614743;54;20165;-78
2022/12/08 04:14:46;;;;;;;38.83;23.73;;;4.30;99.90;;;;;;2614995;54;20423;-77
2022/12/08 04:17:12;;;;;;;36.47;21.20;;;4.30;99.90;;;;;;2614375;54;20698;-77
2022/12/08 04:23:00;;;;;;;40.30;25.53;;;4.30;99.90;;;;;;2613885;54;20374;-78
2022/12/08 04:28:48;;;;;;;38.80;23.50;;;4.30;99.90;;;;;;2615168;54;20150;-75
2022/12/08 04:34:35;;;;;;;34.60;20.90;;;4.30;99.90;;;;;;2615152;54;20154;-77
2022/12/08 04:40:23;;;;;;;36.20;19.97;;;4.30;99.90;;;;;;2614414;54;20134;-75
2022/12/08 04:46:11;;;;;;;35.27;23.10;;;4.30;99.90;;;;;;2615357;54;20161;-79
2022/12/08 04:51:59;;;;;;;32.43;20.90;;;4.30;99.90;;;;;;2614175;54;20925;-78
2022/12/08 04:55:03;;;;;;;32.20;20.57;;;4.30;99.90;;;;;;2614514;54;20407;-77
2022/12/08 04:57:28;;;;;;;36.60;22.20;;;4.20;99.90;;;;;;2614102;54;20490;-78
2022/12/08 05:03:16;;;;;;;33.03;20.43;;;4.30;99.90;;;;;;2615944;54;20134;-77
2022/12/08 05:09:05;;;;;;;32.50;18.70;;;4.20;99.90;;;;;;2615166;54;20386;-78
2022/12/08 05:14:52;;;;;;;30.67;17.83;;;4.20;99.90;;;;;;2614452;54;20701;-76
2022/12/08 05:20:39;;;;;;;32.27;20.97;;;4.20;99.90;;;;;;2615176;39;20569;-79
2022/12/08 05:26:27;;;;;;;34.50;19.27;;;4.20;99.90;;;;;;2615206;54;20167;-77
2022/12/08 05:32:16;;;;;;;32.03;21.43;;;4.20;99.90;;;;;;2615572;39;20554;-77
2022/12/08 05:38:04;;;;;;;26.20;17.00;;;4.20;99.90;;;;;;2615977;54;20398;-78
2022/12/08 05:43:52;;;;;;;25.87;18.87;;;4.30;99.90;;;;;;2616231;54;20398;-76
2022/12/08 05:46:18;;;;;;;18.40;12.17;;;4.30;99.90;;;;;;2615553;54;20976;-75
2022/12/08 05:48:43;;;;;;;28.73;16.83;;;4.30;99.90;;;;;;2614988;54;20167;-76
2022/12/08 05:54:31;;;;;;;35.67;18.57;;;4.30;99.90;;;;;;2616479;54;20158;-76
2022/12/08 06:00:20;;;;;;;28.23;17.90;;;4.30;99.90;;;;;;2615711;54;20612;-75
2022/12/08 06:06:08;;;;;;;30.20;18.73;;;4.30;99.90;;;;;;2616903;46;20918;-73
2022/12/08 06:11:56;;;;;;;28.50;15.43;;;4.20;99.90;;;;;;2615410;54;20123;-79
2022/12/08 06:14:48;;;;;;;26.30;16.20;;;4.30;99.90;;;;;;2615309;46;20510;-76
2022/12/08 06:17:13;;;;;;;20.70;14.40;;;4.20;99.90;;;;;;2615413;54;20822;-78
2022/12/08 06:23:02;;;;;;;24.10;13.90;;;4.20;99.90;;;;;;2613246;54;20123;-73
2022/12/08 06:28:49;;;;;;;19.40;12.73;;;4.20;99.90;;;;;;2613479;54;20367;-74
2022/12/08 06:34:37;;;;;;;17.30;11.57;;;4.00;99.90;;;;;;2613101;54;20792;-75
2022/12/08 06:40:25;;;;;;;23.00;13.30;;;4.00;99.90;;;;;;2611214;54;20138;-73
2022/12/08 06:46:16;;;;;;;22.20;13.47;;;4.00;99.90;;;;;;2611769;54;20134;-76
2022/12/08 06:52:03;;;;;;;24.97;16.33;;;4.00;99.90;;;;;;2609700;54;20956;-74
2022/12/08 06:57:52;;;;;;;24.73;14.87;;;4.10;99.90;;;;;;2611679;39;20546;-76
2022/12/08 07:03:42;;;;;;;23.90;15.40;;;4.10;99.90;;;;;;2612898;54;20510;-74
2022/12/08 07:09:29;;;;;;;20.37;12.67;;;4.10;99.90;;;;;;2613375;54;20904;-74
2022/12/08 07:19:17;;;;;;;24.23;15.60;;;4.00;99.90;;;;;;2613677;54;20430;-76
2022/12/08 07:25:05;;;;;;;28.20;16.30;;;4.00;99.90;;;;;;2612642;54;20423;-76
2022/12/08 07:30:52;;;;;;;27.53;13.53;;;4.00;99.90;;;;;;2613271;46;20414;-75
2022/12/08 07:36:41;;;;;;;28.00;17.00;;;4.00;99.90;;;;;;2611976;54;20137;-75
2022/12/08 07:42:28;;;;;;;34.73;17.10;;;4.00;99.90;;;;;;2613200;54;20134;-76
2022/12/08 07:45:25;;;;;;;29.17;16.07;;;4.10;99.90;;;;;;2613545;54;20407;-75
2022/12/08 07:47:50;;;;;;;28.30;16.40;;;4.10;99.90;;;;;;2608577;54;20250;-75
2022/12/08 07:53:39;;;;;;;22.27;13.43;;;4.10;99.90;;;;;;2613166;39;20528;-75
2022/12/08 07:59:27;;;;;;;24.53;14.57;;;4.10;99.90;;;;;;2612613;54;20401;-72
2022/12/08 08:05:15;;;;;;;25.00;14.77;;;4.10;99.90;;;;;;2613260;54;20141;-75
2022/12/08 08:11:06;;;;;;;26.00;16.07;;;4.10;99.90;;;;;;2612593;54;20150;-74
2022/12/08 08:20:15;;;;;;;15.97;10.10;;;4.10;99.90;;;;;;2612238;54;20523;-73
2022/12/08 08:26:04;;;;;;;25.50;14.57;;;3.90;99.90;;;;;;2613523;54;20391;-75
2022/12/08 08:31:51;;;;;;;24.87;13.33;;;4.00;99.90;;;;;;2612811;54;20407;-73
2022/12/08 08:37:39;;;;;;;17.03;11.60;;;3.90;99.90;;;;;;2613566;54;20274;-74
2022/12/08 08:43:27;;;;;;;15.70;11.03;;;3.80;99.90;;;;;;2612558;39;20500;-73
2022/12/08 08:49:15;;;;;;;18.37;12.80;;;3.90;99.90;;;;;;2613446;54;20170;-75
2022/12/08 08:55:03;;;;;;;16.90;10.77;;;3.90;99.90;;;;;;2613921;54;20155;-73
2022/12/08 09:00:51;;;;;;;14.20;10.67;;;3.90;99.90;;;;;;2612571;54;20395;-72
2022/12/08 09:06:39;;;;;;;16.97;11.30;;;3.90;99.90;;;;;;2612577;54;20199;-74
2022/12/08 09:12:26;;;;;;;18.87;14.57;;;3.90;99.90;;;;;;2613545;54;20175;-74
2022/12/08 09:15:36;;;;;;;18.87;13.40;;;3.90;99.90;;;;;;2613390;39;20825;-73
2022/12/08 09:18:07;;;;;;;21.20;12.70;;;3.90;99.90;;;;;;2611422;54;20160;-74
2022/12/08 09:23:57;;;;;;;15.03;10.33;;;4.00;99.90;;;;;;2613132;54;20406;-76
2022/12/08 09:29:44;;;;;;;17.53;12.73;;;4.00;99.90;;;;;;2612549;54;20399;-74
2022/12/08 09:35:32;;;;;;;13.30;9.10;;;3.90;99.90;;;;;;2613476;54;20137;-74
2022/12/08 09:41:35;;;;;;;20.20;13.30;;;3.90;99.90;;;;;;2613120;54;20391;-74
2022/12/08 09:53:52;;;;;;;27.00;17.60;;;3.80;99.90;;;;;;2613904;54;20410;-73
2022/12/08 09:59:45;;;;;;;30.60;21.10;;;3.90;99.90;;;;;;2612239;39;20775;-73
2022/12/08 10:05:38;;;;;;;29.57;19.43;;;3.90;99.90;;;;;;2613787;54;20996;-73
2022/12/08 10:21:17;;;;;;;31.17;19.10;;;3.90;99.90;;;;;;2613153;39;20777;-75
2022/12/08 10:27:10;;;;;;;32.00;19.33;;;3.90;99.90;;;;;;2614765;54;20387;-74
2022/12/08 10:32:58;;;;;;;30.47;22.23;;;3.90;99.90;;;;;;2612046;46;21135;-72
2022/12/08 10:38:46;;;;;;;30.47;19.13;;;3.80;99.90;;;;;;2614258;54;20450;-73
2022/12/08 10:51:27;;;;;;;31.80;18.23;;;3.90;99.90;;;;;;2611912;54;20391;-76
2022/12/08 10:53:53;;;;;;;26.23;18.13;;;3.80;99.90;;;;;;2611806;54;20443;-74
2022/12/08 10:56:23;;;;;;;26.30;16.80;;;3.80;99.90;;;;;;2613530;31;20989;-74
2022/12/08 11:05:58;;;;;;;24.00;19.20;;;3.80;99.90;;;;;;2612298;54;20402;-73
2022/12/08 11:08:25;;;;;;;26.77;18.37;;;3.80;99.90;;;;;;2610567;54;20447;-75
2022/12/08 11:21:06;;;;;;;28.27;19.97;;;3.80;99.90;;;;;;2610714;54;20406;-74
2022/12/08 11:23:34;;;;;;;31.13;20.90;;;3.80;99.90;;;;;;2611519;54;21616;-74
2022/12/08 11:26:10;;;;;;;29.53;18.20;;;3.80;99.90;;;;;;2611949;46;20532;-75
2022/12/08 11:36:08;;;;;;;29.57;19.63;;;3.80;99.90;;;;;;2611329;54;20513;-74
2022/12/08 11:41:57;;;;;;;31.40;19.37;;;3.90;99.90;;;;;;2612428;54;20498;-74
2022/12/08 11:57:22;;;;;;;35.23;23.80;;;3.90;99.90;;;;;;2612978;54;20351;-73
2022/12/08 12:26:20;;;;;;;37.33;26.43;;;3.60;99.90;;;;;;2611104;54;20394;-73
2022/12/08 12:32:09;;;;;;;34.17;22.70;;;3.60;99.90;;;;;;2612273;54;20967;-75
2022/12/08 12:44:44;;;;;;;25.70;18.03;;;3.40;99.90;;;;;;2610038;54;20383;-74
2022/12/08 12:50:35;;;;;;;22.27;14.90;;;3.20;99.90;;;;;;2610532;54;20537;-74
2022/12/08 12:56:47;;;;;;;29.00;19.00;;;3.20;99.90;;;;;;2609623;46;20406;-74
2022/12/08 13:02:43;;;;;;;24.53;17.50;;;3.30;99.90;;;;;;2609642;54;20370;-75
2022/12/08 13:08:31;;;;;;;23.73;15.90;;;3.30;99.90;;;;;;2612092;54;21104;-73
2022/12/08 13:27:04;;;;;;;23.77;15.40;;;3.40;99.90;;;;;;2612560;54;20410;-75
2022/12/08 13:32:56;;;;;;;24.87;17.97;;;3.50;99.90;;;;;;2611139;54;20406;-74
2022/12/08 13:35:23;;;;;;;29.80;20.17;;;3.50;99.90;;;;;;2610150;54;20559;-74
2022/12/08 13:37:49;;;;;;;27.87;20.93;;;3.50;99.90;;;;;;2613724;54;20390;-75
2022/12/08 13:43:47;;;;;;;31.27;19.27;;;3.60;99.90;;;;;;2613811;54;20402;-74
2022/12/08 13:49:41;;;;;;;29.47;19.00;;;3.60;99.90;;;;;;2614473;54;20507;-74
2022/12/08 14:01:48;;;;;;;24.07;17.00;;;3.50;99.90;;;;;;2612222;54;20500;-75
2022/12/08 14:07:39;;;;;;;25.70;15.67;;;3.40;99.90;;;;;;2611742;39;20571;-73
2022/12/08 14:13:28;;;;;;;21.83;14.07;;;3.40;99.90;;;;;;2612159;54;20370;-76
2022/12/08 14:19:19;;;;;;;21.73;13.97;;;3.50;99.90;;;;;;2614183;39;20907;-74
2022/12/08 14:28:30;;;;;;;25.13;14.33;;;3.30;99.90;;;;;;2611836;54;20938;-74
2022/12/08 14:34:18;;;;;;;22.10;14.90;;;3.20;99.90;;;;;;2613325;54;20904;-74
2022/12/08 14:46:37;;;;;;;29.70;17.60;;;3.30;99.90;;;;;;2611900;54;20383;-74
2022/12/08 14:52:26;;;;;;;26.97;19.00;;;3.30;99.90;;;;;;2612186;54;20126;-74
2022/12/08 15:04:59;;;;;;;37.57;21.87;;;3.30;99.90;;;;;;2614919;54;20439;-74
2022/12/08 15:23:56;;;;;;;28.77;17.07;;;3.30;99.90;;;;;;2613272;54;20562;-74
2022/12/08 15:29:45;;;;;;;26.07;16.00;;;3.30;99.90;;;;;;2613271;54;20375;-75
2022/12/08 15:35:33;;;;;;;26.40;16.07;;;3.30;99.90;;;;;;2613366;54;20949;-75
2022/12/08 15:37:59;;;;;;;25.80;16.83;;;3.40;99.90;;;;;;2609764;46;20805;-72
2022/12/08 15:40:27;;;;;;;23.83;16.80;;;3.30;99.90;;;;;;2611116;54;20153;-75
2022/12/08 15:46:14;;;;;;;28.57;18.70;;;3.40;99.90;;;;;;2614119;54;21535;-76
2022/12/08 15:52:02;;;;;;;30.27;19.93;;;3.20;99.90;;;;;;2614453;39;20493;-74
2022/12/08 15:57:52;;;;;;;26.90;19.40;;;3.20;99.90;;;;;;2613190;54;20802;-73
2022/12/08 16:03:40;;;;;;;29.80;21.13;;;3.20;99.90;;;;;;2612808;54;20398;-75
2022/12/08 16:09:37;;;;;;;27.30;19.00;;;3.30;99.90;;;;;;2612461;54;20134;-74
2022/12/08 16:15:24;;;;;;;30.03;18.60;;;3.30;99.90;;;;;;2613157;54;20382;-76
2022/12/08 16:21:13;;;;;;;28.87;20.50;;;3.30;99.90;;;;;;2612333;54;20138;-75
2022/12/08 16:23:58;;;;;;;31.03;20.37;;;3.30;99.90;;;;;;2611830;39;20805;-75
2022/12/08 16:26:24;;;;;;;36.27;23.77;;;3.30;99.90;;;;;;2611488;54;20415;-76
2022/12/08 16:32:12;;;;;;;35.63;25.00;;;3.30;99.90;;;;;;2613249;54;20158;-75
2022/12/08 16:37:59;;;;;;;35.13;25.30;;;3.30;99.90;;;;;;2614831;39;20531;-76
2022/12/08 16:43:49;;;;;;;31.20;24.27;;;3.40;99.90;;;;;;2612319;54;20157;-74
2022/12/08 16:49:38;;;;;;;32.87;24.13;;;3.30;99.90;;;;;;2612744;39;20840;-75
2022/12/08 16:55:26;;;;;;;37.20;22.83;;;3.30;99.90;;;;;;2613350;54;20380;-77
2022/12/08 17:01:16;;;;;;;31.17;22.33;;;3.30;99.90;;;;;;2612804;54;20367;-75
2022/12/08 17:03:43;;;;;;;34.50;22.17;;;3.30;99.90;;;;;;2614120;31;20918;-75
2022/12/08 17:06:16;;;;;;;31.17;21.87;;;3.40;99.90;;;;;;2613174;39;20815;-74
2022/12/08 17:12:04;;;;;;;34.20;22.57;;;3.60;99.90;;;;;;2613108;54;20404;-74
2022/12/08 17:17:52;;;;;;;33.13;22.93;;;3.60;99.90;;;;;;2612789;54;20255;-75
2022/12/08 17:23:40;;;;;;;35.70;23.30;;;3.70;99.90;;;;;;2614479;54;20204;-75
2022/12/08 17:29:28;;;;;;;42.60;24.43;;;3.70;99.90;;;;;;2615654;31;20864;-76
2022/12/08 17:35:19;;;;;;;34.27;22.30;;;3.80;99.90;;;;;;2613412;54;20386;-75
2022/12/08 17:41:08;;;;;;;28.20;20.70;;;3.80;99.90;;;;;;2613495;54;20443;-76
2022/12/08 17:46:56;;;;;;;30.33;21.63;;;3.80;99.90;;;;;;2612467;39;20819;-76
2022/12/08 17:52:43;;;;;;;37.63;25.00;;;3.80;99.90;;;;;;2612357;54;20171;-76
2022/12/08 17:58:31;;;;;;;36.00;25.93;;;3.80;99.90;;;;;;2615088;54;20951;-77
2022/12/08 18:04:19;;;;;;;38.47;26.43;;;3.80;99.90;;;;;;2612032;54;20167;-75
2022/12/08 18:10:07;;;;;;;43.30;24.83;;;3.80;99.90;;;;;;2614197;54;20186;-75
2022/12/08 18:15:55;;;;;;;43.33;27.47;;;3.80;99.90;;;;;;2613975;54;20924;-72
2022/12/08 18:21:43;;;;;;;41.50;24.97;;;3.80;99.90;;;;;;2612920;54;20167;-75
2022/12/08 18:27:31;;;;;;;37.23;24.27;;;3.80;99.90;;;;;;2615023;54;20422;-75
2022/12/08 18:33:18;;;;;;;43.73;27.37;;;3.80;99.90;;;;;;2613753;54;20391;-75
2022/12/08 18:39:06;;;;;;;46.87;27.77;;;3.70;99.90;;;;;;2613110;54;20130;-76
2022/12/08 18:45:03;;;;;;;41.43;26.00;;;3.70;99.90;;;;;;2614024;54;20142;-76
2022/12/08 18:50:50;;;;;;;50.40;32.00;;;3.70;99.90;;;;;;2613659;54;20382;-74
2022/12/08 18:56:38;;;;;;;54.27;34.70;;;3.70;99.90;;;;;;2612364;54;20701;-74
2022/12/08 19:02:26;;;;;;;33.83;24.80;;;3.70;99.90;;;;;;2614249;54;20122;-75
2022/12/08 19:08:13;;;;;;;38.97;24.43;;;3.70;99.90;;;;;;2611974;54;20134;-74
2022/12/08 19:14:01;;;;;;;36.13;25.47;;;3.70;99.90;;;;;;2615051;31;20700;-75
2022/12/08 19:19:49;;;;;;;34.60;23.83;;;3.60;99.90;;;;;;2614105;54;20134;-74
2022/12/08 19:28:59;;;;;;;38.40;26.80;;;3.50;99.90;;;;;;2613692;54;20523;-75
2022/12/08 19:34:47;;;;;;;43.87;26.07;;;3.40;99.90;;;;;;2611498;54;20398;-75
2022/12/08 19:46:41;;;;;;;39.10;26.03;;;3.00;99.90;;;;;;2613320;54;20944;-76
2022/12/08 19:52:28;;;;;;;42.70;26.37;;;2.90;99.90;;;;;;2612180;54;20231;-76
2022/12/08 19:58:18;;;;;;;46.87;29.53;;;2.80;99.90;;;;;;2614224;46;20146;-75
2022/12/08 20:04:05;;;;;;;44.00;27.20;;;2.80;99.90;;;;;;2609992;54;20386;-75
2022/12/08 20:09:53;;;;;;;45.87;26.37;;;2.70;99.90;;;;;;2610127;54;20147;-75
2022/12/08 20:15:42;;;;;;;45.70;28.37;;;2.80;99.90;;;;;;2614607;54;20150;-76
2022/12/08 20:21:29;;;;;;;47.37;29.73;;;2.60;99.90;;;;;;2612882;46;20407;-75
2022/12/08 20:24:29;;;;;;;52.63;31.40;;;2.60;99.90;;;;;;2613007;31;20845;-75
2022/12/08 20:26:55;;;;;;;52.20;28.37;;;2.70;99.90;;;;;;2612441;54;20722;-77
2022/12/08 20:32:43;;;;;;;40.50;27.47;;;2.80;99.90;;;;;;2612434;54;20154;-75
2022/12/08 20:38:31;;;;;;;44.57;27.57;;;2.80;99.90;;;;;;2613542;39;21149;-76
2022/12/08 20:44:20;;;;;;;36.37;24.60;;;2.50;99.90;;;;;;2613578;54;20122;-76
2022/12/08 20:50:08;;;;;;;39.77;25.57;;;2.30;99.90;;;;;;2613057;54;20406;-77
2022/12/08 20:55:56;;;;;;;45.87;28.20;;;2.30;99.90;;;;;;2613922;54;20427;-78
2022/12/08 21:01:44;;;;;;;38.30;25.80;;;1.80;99.90;;;;;;2613055;54;20125;-76
2022/12/08 21:07:32;;;;;;;43.83;25.90;;;1.50;99.90;;;;;;2614039;39;20301;-73
2022/12/08 21:13:20;;;;;;;41.73;26.87;;;1.50;99.90;;;;;;2613723;54;20394;-72
2022/12/08 21:19:10;;;;;;;42.47;27.30;;;1.60;99.90;;;;;;2613557;54;20456;-76
2022/12/08 21:29:00;;;;;;;35.50;24.40;;;1.90;99.90;;;;;;2613719;54;20924;-75
2022/12/08 21:34:48;;;;;;;44.30;26.70;;;2.10;99.90;;;;;;2613905;54;20423;-75
2022/12/08 21:40:35;;;;;;;39.00;29.87;;;2.20;99.90;;;;;;2611597;54;20259;-76
2022/12/08 21:46:23;;;;;;;46.47;29.77;;;2.20;99.90;;;;;;2612905;54;20243;-77
2022/12/08 21:52:11;;;;;;;41.63;28.87;;;2.20;99.90;;;;;;2614008;54;20251;-75
2022/12/08 21:57:59;;;;;;;40.87;28.97;;;2.30;99.90;;;;;;2614183;54;20166;-76
2022/12/08 22:03:47;;;;;;;41.90;28.53;;;2.30;99.90;;;;;;2614112;54;20591;-74
2022/12/08 22:09:35;;;;;;;39.63;26.87;;;2.30;99.90;;;;;;2614332;54;20175;-76
2022/12/08 22:15:23;;;;;;;42.53;27.90;;;2.40;99.90;;;;;;2613795;54;20701;-75
2022/12/08 22:21:14;;;;;;;36.50;26.50;;;2.50;99.90;;;;;;2613651;54;20535;-75
2022/12/08 22:24:29;;;;;;;44.47;28.23;;;2.40;99.90;;;;;;2614846;54;20419;-75
2022/12/08 22:26:55;;;;;;;43.90;26.87;;;2.50;99.90;;;;;;2614394;54;20447;-75
2022/12/08 22:32:43;;;;;;;36.17;26.40;;;2.50;99.90;;;;;;2614172;54;20131;-74
2022/12/08 22:38:31;;;;;;;42.30;25.60;;;2.40;99.90;;;;;;2615149;54;20151;-75
2022/12/08 22:44:19;;;;;;;39.97;25.30;;;2.30;99.90;;;;;;2615439;54;20394;-76
2022/12/08 22:50:06;;;;;;;41.13;27.77;;;2.30;99.90;;;;;;2612523;54;20134;-76
2022/12/08 22:55:55;;;;;;;42.80;27.27;;;2.50;99.90;;;;;;2613665;54;20127;-74
2022/12/08 23:01:43;;;;;;;43.93;29.67;;;2.40;99.90;;;;;;2612254;39;21066;-75
2022/12/08 23:07:30;;;;;;;41.57;27.83;;;2.50;99.90;;;;;;2614542;54;20134;-75
2022/12/08 23:13:19;;;;;;;34.57;24.53;;;2.50;99.90;;;;;;2614877;54;20131;-76
2022/12/08 23:19:07;;;;;;;37.87;27.13;;;2.70;99.90;;;;;;2614422;39;21017;-75
2022/12/08 23:29:01;;;;;;;39.83;27.23;;;2.90;99.90;;;;;;2613046;46;20422;-73
2022/12/08 23:34:48;;;;;;;40.43;26.03;;;2.80;99.90;;;;;;2614265;54;20390;-74
2022/12/08 23:40:35;;;;;;;44.10;27.20;;;2.70;99.90;;;;;;2614583;54;20659;-73
2022/12/08 23:46:24;;;;;;;42.20;25.97;;;2.70;99.90;;;;;;2614321;54;20198;-75
2022/12/08 23:52:12;;;;;;;45.50;28.10;;;2.80;99.90;;;;;;2614280;39;20804;-75
2022/12/08 23:58:00;;;;;;;46.90;26.73;;;2.70;99.90;;;;;;2613467;54;20960;-74
